Aérodrome :
LOGIN :

S'inscrire | Disclaimer

   EN    FR    IT 

 










Légende :    VFR   VFR Marginal   IFR   IFR Intensif   IFR Très Intensif
Visi : 
Plafond : 
>= 8 km
>= 3000ft
5 à 8 km
1000 à 3000 ft
1500m à 5 km
500 à 1000 ft
800 à 1500m
200 à 500 ft
< 800m
< 200 ft
Symboles :   Orages  Brouillard  Fortes neiges  Fortes précipitations  Vent > 20 kt
SIGMETs :   Divers  Orages  Givrage  Turbulence  Onde Orograph.  Cendres Volcan.







- Altitude de l'aérodrome : 364 ft
- Code IATA : FRA


EDDF - Frankfurt Int.

DERNIER METAR :
  • 190420Z 23005KT 180V260 9999 FEW007 BKN065 05/04 Q1014 NOSIG

METARs EXPIRÉS :
  • 190350Z 21005KT 9999 FEW007 BKN045 05/04 Q1014 NOSIG
  • 190320Z 21005KT 9999 -RA FEW008 BKN018 05/04 Q1014 NOSIG
  • 190250Z 20005KT 9999 -RA SCT012 BKN022 OVC038 05/04 Q1014 TEMPO BKN012
  • 190220Z 19006KT 9999 SCT012 SCT028 OVC050 05/04 Q1014 TEMPO BKN012
  • 190150Z 19006KT 9999 -RA FEW012 SCT020 OVC050 05/04 Q1014 TEMPO BKN012

TAF TAF EDDF
Valide du 19 à 00h jusqu'au 20 à 06h UTC


182300Z 1900/2006 21010KT 9999 BKN025
PROB30
TEMPO 1900/1903 RA BKN014
BECMG 1905/1908 27010KT
TEMPO 1912/1921 27015G25KT
PROB30
TEMPO 1912/1921 4000 SHRA BKN020TCU
Pas de NOTAMs connus pour ce terrain.



MET'MAP, la Météo Aéronautique d'un coup d'oeil ! - Copyright ORBIFLY Décembre 2007 - Disclaimer

ORBIFLY MET'MAP TEAM :

Programmation & Développement : Alexandra Zaïnal
Conception & Développement : Baudouin d'Aumeries
Co-Programmation & Développement : Marc-Olivier Méhu
Soutien technique & logistique : Manuel Goepfert

Contact : metmap@orbifly.com




SOURCES & CREDITS :

   NOAA